sensor_id;sensor_type;location;lat;lon;timestamp;pressure;altitude;pressure_sealevel;temperature;humidity
12969;BME280;6549;53.128;8.182;2023-08-08T00:01:09;100848.75;;;12.44;100.00
12969;BME280;6549;53.128;8.182;2023-08-08T00:04:10;100850.34;;;12.45;100.00
12969;BME280;6549;53.128;8.182;2023-08-08T00:07:10;100851.94;;;12.42;100.00
12969;BME280;6549;53.128;8.182;2023-08-08T00:10:11;100834.59;;;12.45;100.00
12969;BME280;6549;53.128;8.182;2023-08-08T00:13:11;100838.13;;;12.49;100.00
12969;BME280;6549;53.128;8.182;2023-08-08T00:16:11;100829.88;;;12.46;100.00
12969;BME280;6549;53.128;8.182;2023-08-08T00:19:12;100822.78;;;12.45;100.00
12969;BME280;6549;53.128;8.182;2023-08-08T00:22:12;100827.50;;;12.44;100.00
12969;BME280;6549;53.128;8.182;2023-08-08T00:25:12;100834.59;;;12.49;100.00
12969;BME280;6549;53.128;8.182;2023-08-08T00:28:12;100825.16;;;12.46;100.00
12969;BME280;6549;53.128;8.182;2023-08-08T00:31:13;100825.94;;;12.43;100.00
12969;BME280;6549;53.128;8.182;2023-08-08T00:34:13;100825.94;;;12.43;100.00
12969;BME280;6549;53.128;8.182;2023-08-08T00:37:13;100823.56;;;12.42;100.00
12969;BME280;6549;53.128;8.182;2023-08-08T00:40:14;100834.19;;;12.40;100.00
12969;BME280;6549;53.128;8.182;2023-08-08T00:43:14;100823.94;;;12.44;100.00
12969;BME280;6549;53.128;8.182;2023-08-08T00:46:14;100822.78;;;12.41;100.00
12969;BME280;6549;53.128;8.182;2023-08-08T00:49:15;100822.00;;;12.37;100.00
12969;BME280;6549;53.128;8.182;2023-08-08T00:52:15;100827.50;;;12.41;100.00
12969;BME280;6549;53.128;8.182;2023-08-08T00:55:16;100820.81;;;12.42;100.00
12969;BME280;6549;53.128;8.182;2023-08-08T00:58:17;100821.59;;;12.46;100.00
12969;BME280;6549;53.128;8.182;2023-08-08T01:01:17;100821.59;;;12.42;100.00
12969;BME280;6549;53.128;8.182;2023-08-08T01:04:19;100829.09;;;12.42;100.00
12969;BME280;6549;53.128;8.182;2023-08-08T01:15:14;100814.91;;;12.43;100.00
12969;BME280;6549;53.128;8.182;2023-08-08T01:18:15;100814.50;;;12.45;100.00
12969;BME280;6549;53.128;8.182;2023-08-08T01:21:16;100810.16;;;12.44;100.00
12969;BME280;6549;53.128;8.182;2023-08-08T01:24:22;100817.66;;;12.47;100.00
12969;BME280;6549;53.128;8.182;2023-08-08T01:27:23;100804.69;;;12.47;100.00
12969;BME280;6549;53.128;8.182;2023-08-08T01:30:24;100807.00;;;12.49;100.00
12969;BME280;6549;53.128;8.182;2023-08-08T01:33:24;100799.94;;;12.48;100.00
12969;BME280;6549;53.128;8.182;2023-08-08T01:36:31;100792.06;;;12.50;100.00
12969;BME280;6549;53.128;8.182;2023-08-08T01:39:33;100782.63;;;12.47;100.00
12969;BME280;6549;53.128;8.182;2023-08-08T01:42:34;100783.41;;;12.48;100.00
12969;BME280;6549;53.128;8.182;2023-08-08T01:45:36;100778.69;;;12.52;100.00
12969;BME280;6549;53.128;8.182;2023-08-08T01:48:37;100773.94;;;12.52;100.00
12969;BME280;6549;53.128;8.182;2023-08-08T01:51:37;100778.66;;;12.55;100.00
12969;BME280;6549;53.128;8.182;2023-08-08T01:54:38;100785.75;;;12.60;100.00
12969;BME280;6549;53.128;8.182;2023-08-08T01:57:38;100782.59;;;12.58;100.00
12969;BME280;6549;53.128;8.182;2023-08-08T02:00:38;100780.63;;;12.55;100.00
12969;BME280;6549;53.128;8.182;2023-08-08T02:03:41;100773.16;;;12.52;100.00
12969;BME280;6549;53.128;8.182;2023-08-08T02:06:41;100774.34;;;12.51;100.00
12969;BME280;6549;53.128;8.182;2023-08-08T02:09:41;100772.75;;;12.50;100.00
12969;BME280;6549;53.128;8.182;2023-08-08T02:12:42;100772.41;;;12.48;100.00
12969;BME280;6549;53.128;8.182;2023-08-08T02:15:42;100776.31;;;12.47;100.00
12969;BME280;6549;53.128;8.182;2023-08-08T02:18:42;100771.59;;;12.47;100.00
12969;BME280;6549;53.128;8.182;2023-08-08T02:21:42;100768.84;;;12.47;100.00
12969;BME280;6549;53.128;8.182;2023-08-08T02:24:43;100765.31;;;12.47;100.00
12969;BME280;6549;53.128;8.182;2023-08-08T02:27:43;100757.81;;;12.44;100.00
12969;BME280;6549;53.128;8.182;2023-08-08T02:30:44;100748.78;;;12.43;100.00
12969;BME280;6549;53.128;8.182;2023-08-08T02:33:44;100748.00;;;12.43;100.00
12969;BME280;6549;53.128;8.182;2023-08-08T02:36:44;100742.06;;;12.44;100.00
12969;BME280;6549;53.128;8.182;2023-08-08T02:39:45;100744.44;;;12.42;100.00
12969;BME280;6549;53.128;8.182;2023-08-08T02:42:45;100741.69;;;12.46;100.00
12969;BME280;6549;53.128;8.182;2023-08-08T02:45:45;100740.09;;;12.45;100.00
12969;BME280;6549;53.128;8.182;2023-08-08T02:48:46;100745.59;;;12.45;100.00
12969;BME280;6549;53.128;8.182;2023-08-08T02:51:46;100739.31;;;12.48;100.00
12969;BME280;6549;53.128;8.182;2023-08-08T02:54:46;100744.03;;;12.51;100.00
12969;BME280;6549;53.128;8.182;2023-08-08T02:57:47;100731.81;;;12.52;100.00
12969;BME280;6549;53.128;8.182;2023-08-08T03:00:47;100727.44;;;12.58;100.00
12969;BME280;6549;53.128;8.182;2023-08-08T03:03:48;100735.31;;;12.63;100.00
12969;BME280;6549;53.128;8.182;2023-08-08T03:06:48;100730.56;;;12.67;100.00
12969;BME280;6549;53.128;8.182;2023-08-08T03:09:48;100711.66;;;12.69;100.00
12969;BME280;6549;53.128;8.182;2023-08-08T03:12:49;100717.94;;;12.73;100.00
12969;BME280;6549;53.128;8.182;2023-08-08T03:15:49;100716.78;;;12.74;100.00
12969;BME280;6549;53.128;8.182;2023-08-08T03:18:49;100721.06;;;12.75;100.00
12969;BME280;6549;53.128;8.182;2023-08-08T03:21:50;100710.06;;;12.79;100.00
12969;BME280;6549;53.128;8.182;2023-08-08T03:24:50;100706.84;;;12.84;100.00
12969;BME280;6549;53.128;8.182;2023-08-08T03:27:50;100708.03;;;12.86;100.00
12969;BME280;6549;53.128;8.182;2023-08-08T03:30:50;100711.16;;;12.88;100.00
12969;BME280;6549;53.128;8.182;2023-08-08T03:33:51;100698.53;;;12.94;100.00
12969;BME280;6549;53.128;8.182;2023-08-08T03:36:51;100707.97;;;13.00;100.00
12969;BME280;6549;53.128;8.182;2023-08-08T03:39:51;100706.75;;;13.01;100.00
12969;BME280;6549;53.128;8.182;2023-08-08T03:42:52;100704.00;;;13.01;100.00
12969;BME280;6549;53.128;8.182;2023-08-08T03:45:52;100700.81;;;13.06;100.00
12969;BME280;6549;53.128;8.182;2023-08-08T03:48:52;100707.53;;;13.09;100.00
12969;BME280;6549;53.128;8.182;2023-08-08T03:51:53;100702.78;;;13.10;100.00
12969;BME280;6549;53.128;8.182;2023-08-08T03:54:53;100697.66;;;13.12;100.00
12969;BME280;6549;53.128;8.182;2023-08-08T03:57:53;100707.13;;;13.11;100.00
12969;BME280;6549;53.128;8.182;2023-08-08T04:00:54;100704.75;;;13.16;100.00
12969;BME280;6549;53.128;8.182;2023-08-08T04:03:54;100696.50;;;13.13;100.00
12969;BME280;6549;53.128;8.182;2023-08-08T04:06:54;100699.63;;;13.15;100.00
12969;BME280;6549;53.128;8.182;2023-08-08T04:09:55;100698.03;;;13.17;100.00
12969;BME280;6549;53.128;8.182;2023-08-08T04:12:55;100690.16;;;13.16;100.00
12969;BME280;6549;53.128;8.182;2023-08-08T04:15:55;100689.38;;;13.19;100.00
12969;BME280;6549;53.128;8.182;2023-08-08T04:18:56;100689.38;;;13.19;100.00
12969;BME280;6549;53.128;8.182;2023-08-08T04:21:56;100684.59;;;13.19;100.00
12969;BME280;6549;53.128;8.182;2023-08-08T04:24:56;100676.72;;;13.21;100.00
12969;BME280;6549;53.128;8.182;2023-08-08T04:27:57;100678.25;;;13.26;100.00
12969;BME280;6549;53.128;8.182;2023-08-08T04:30:57;100682.22;;;13.25;100.00
12969;BME280;6549;53.128;8.182;2023-08-08T04:33:57;100682.19;;;13.28;100.00
12969;BME280;6549;53.128;8.182;2023-08-08T04:37:00;100686.13;;;13.31;100.00
12969;BME280;6549;53.128;8.182;2023-08-08T04:40:00;100684.16;;;13.31;100.00
12969;BME280;6549;53.128;8.182;2023-08-08T04:43:01;100674.25;;;13.34;100.00
12969;BME280;6549;53.128;8.182;2023-08-08T04:46:01;100670.72;;;13.33;100.00
12969;BME280;6549;53.128;8.182;2023-08-08T04:49:01;100667.91;;;13.37;100.00
12969;BME280;6549;53.128;8.182;2023-08-08T04:52:02;100670.69;;;13.37;100.00
12969;BME280;6549;53.128;8.182;2023-08-08T04:55:02;100667.91;;;13.37;100.00
12969;BME280;6549;53.128;8.182;2023-08-08T04:58:03;100666.38;;;13.36;100.00
12969;BME280;6549;53.128;8.182;2023-08-08T05:01:03;100664.75;;;13.38;100.00
12969;BME280;6549;53.128;8.182;2023-08-08T05:04:04;100664.75;;;13.38;100.00
12969;BME280;6549;53.128;8.182;2023-08-08T05:07:04;100663.16;;;13.41;100.00
12969;BME280;6549;53.128;8.182;2023-08-08T05:10:05;100671.03;;;13.42;100.00
12969;BME280;6549;53.128;8.182;2023-08-08T05:13:05;100659.22;;;13.42;100.00
12969;BME280;6549;53.128;8.182;2023-08-08T05:16:06;100676.53;;;13.46;100.00
12969;BME280;6549;53.128;8.182;2023-08-08T05:19:06;100670.13;;;13.56;100.00
12969;BME280;6549;53.128;8.182;2023-08-08T05:22:06;100660.94;;;13.70;100.00
12969;BME280;6549;53.128;8.182;2023-08-08T05:25:07;100671.88;;;13.84;100.00
12969;BME280;6549;53.128;8.182;2023-08-08T05:28:07;100664.59;;;14.01;100.00
12969;BME280;6549;53.128;8.182;2023-08-08T05:31:08;100658.13;;;14.14;100.00
12969;BME280;6549;53.128;8.182;2023-08-08T05:34:08;100661.97;;;14.24;100.00
12969;BME280;6549;53.128;8.182;2023-08-08T05:37:08;100668.56;;;14.37;100.00
12969;BME280;6549;53.128;8.182;2023-08-08T05:40:09;100668.97;;;14.32;100.00
12969;BME280;6549;53.128;8.182;2023-08-08T05:43:10;100670.53;;;14.36;100.00
12969;BME280;6549;53.128;8.182;2023-08-08T05:46:10;100670.75;;;14.49;100.00
12969;BME280;6549;53.128;8.182;2023-08-08T05:49:11;100660.72;;;14.62;100.00
12969;BME280;6549;53.128;8.182;2023-08-08T05:52:11;100652.41;;;14.93;100.00
12969;BME280;6549;53.128;8.182;2023-08-08T05:55:11;100661.88;;;15.22;100.00
12969;BME280;6549;53.128;8.182;2023-08-08T05:58:12;100643.69;;;15.44;100.00
12969;BME280;6549;53.128;8.182;2023-08-08T06:01:12;100656.38;;;15.42;100.00
12969;BME280;6549;53.128;8.182;2023-08-08T06:04:13;100646.75;;;15.26;100.00
12969;BME280;6549;53.128;8.182;2023-08-08T06:07:14;100647.94;;;15.52;100.00
12969;BME280;6549;53.128;8.182;2023-08-08T06:10:14;100641.88;;;15.81;100.00
12969;BME280;6549;53.128;8.182;2023-08-08T06:13:14;100632.13;;;15.96;100.00
12969;BME280;6549;53.128;8.182;2023-08-08T06:16:15;100641.91;;;16.20;100.00
12969;BME280;6549;53.128;8.182;2023-08-08T06:19:16;100652.88;;;16.47;100.00
12969;BME280;6549;53.128;8.182;2023-08-08T06:22:17;100657.56;;;16.70;100.00
12969;BME280;6549;53.128;8.182;2023-08-08T06:25:17;100661.09;;;16.90;100.00
12969;BME280;6549;53.128;8.182;2023-08-08T06:28:17;100661.63;;;17.01;100.00
12969;BME280;6549;53.128;8.182;2023-08-08T06:31:18;100673.91;;;17.20;100.00
12969;BME280;6549;53.128;8.182;2023-08-08T06:34:19;100673.47;;;17.37;100.00
12969;BME280;6549;53.128;8.182;2023-08-08T06:37:19;100676.25;;;17.37;100.00
12969;BME280;6549;53.128;8.182;2023-08-08T06:40:19;100668.56;;;17.09;100.00
12969;BME280;6549;53.128;8.182;2023-08-08T06:43:21;100674.88;;;16.77;100.00
12969;BME280;6549;53.128;8.182;2023-08-08T06:46:21;100673.19;;;16.64;100.00
12969;BME280;6549;53.128;8.182;2023-08-08T06:49:22;100672.38;;;16.63;100.00
12969;BME280;6549;53.128;8.182;2023-08-08T06:52:23;100671.53;;;16.66;100.00
12969;BME280;6549;53.128;8.182;2023-08-08T06:55:23;100667.53;;;16.47;100.00
12969;BME280;6549;53.128;8.182;2023-08-08T06:58:24;100670.31;;;16.28;100.00
12969;BME280;6549;53.128;8.182;2023-08-08T07:01:24;100664.19;;;16.16;100.00
12969;BME280;6549;53.128;8.182;2023-08-08T07:04:25;100658.34;;;16.11;100.00
12969;BME280;6549;53.128;8.182;2023-08-08T07:07:25;100669.16;;;16.05;100.00
12969;BME280;6549;53.128;8.182;2023-08-08T07:10:25;100667.09;;;16.09;100.00
12969;BME280;6549;53.128;8.182;2023-08-08T07:13:27;100669.16;;;16.05;100.00
12969;BME280;6549;53.128;8.182;2023-08-08T07:16:27;100672.34;;;16.04;100.00
12969;BME280;6549;53.128;8.182;2023-08-08T07:19:27;100660.78;;;16.09;100.00
12969;BME280;6549;53.128;8.182;2023-08-08T07:22:28;100661.19;;;16.07;100.00
12969;BME280;6549;53.128;8.182;2023-08-08T07:25:28;100666.81;;;16.24;100.00
12969;BME280;6549;53.128;8.182;2023-08-08T07:28:28;100656.59;;;16.40;100.00
12969;BME280;6549;53.128;8.182;2023-08-08T07:31:28;100648.09;;;16.47;100.00
12969;BME280;6549;53.128;8.182;2023-08-08T07:34:29;100646.41;;;16.53;100.00
12969;BME280;6549;53.128;8.182;2023-08-08T07:37:29;100648.63;;;16.62;100.00
12969;BME280;6549;53.128;8.182;2023-08-08T07:40:29;100645.94;;;16.58;100.00
12969;BME280;6549;53.128;8.182;2023-08-08T07:43:30;100641.97;;;16.56;100.00
12969;BME280;6549;53.128;8.182;2023-08-08T07:46:30;100634.53;;;16.53;100.00
12969;BME280;6549;53.128;8.182;2023-08-08T07:49:31;100632.66;;;16.46;100.00
12969;BME280;6549;53.128;8.182;2023-08-08T07:52:31;100643.06;;;16.62;100.00
12969;BME280;6549;53.128;8.182;2023-08-08T07:55:31;100642.00;;;16.76;100.00
12969;BME280;6549;53.128;8.182;2023-08-08T07:58:32;100643.94;;;17.11;100.00
12969;BME280;6549;53.128;8.182;2023-08-08T08:01:32;100632.06;;;17.43;100.00
12969;BME280;6549;53.128;8.182;2023-08-08T08:04:33;100631.72;;;17.73;100.00
12969;BME280;6549;53.128;8.182;2023-08-08T08:07:35;100621.69;;;17.92;100.00
12969;BME280;6549;53.128;8.182;2023-08-08T08:10:36;100622.72;;;18.39;100.00
12969;BME280;6549;53.128;8.182;2023-08-08T08:13:36;100623.91;;;18.80;100.00
12969;BME280;6549;53.128;8.182;2023-08-08T08:16:37;100634.16;;;18.83;100.00
12969;BME280;6549;53.128;8.182;2023-08-08T08:19:37;100627.56;;;18.77;100.00
12969;BME280;6549;53.128;8.182;2023-08-08T08:22:37;100624.69;;;18.80;100.00
12969;BME280;6549;53.128;8.182;2023-08-08T08:25:38;100610.56;;;18.75;100.00
12969;BME280;6549;53.128;8.182;2023-08-08T08:28:38;100635.72;;;18.30;100.00
12969;BME280;6549;53.128;8.182;2023-08-08T08:31:40;100622.69;;;17.98;100.00
12969;BME280;6549;53.128;8.182;2023-08-08T08:34:40;100621.44;;;17.86;100.00
12969;BME280;6549;53.128;8.182;2023-08-08T08:37:40;100631.53;;;18.09;100.00
12969;BME280;6549;53.128;8.182;2023-08-08T08:40:41;100625.75;;;18.45;100.00
12969;BME280;6549;53.128;8.182;2023-08-08T08:43:44;100625.91;;;18.67;100.00
12969;BME280;6549;53.128;8.182;2023-08-08T08:46:46;100619.13;;;18.80;100.00
12969;BME280;6549;53.128;8.182;2023-08-08T08:49:48;100608.75;;;19.06;100.00
12969;BME280;6549;53.128;8.182;2023-08-08T08:52:49;100615.00;;;18.85;100.00
12969;BME280;6549;53.128;8.182;2023-08-08T08:55:50;100617.44;;;18.70;100.00
12969;BME280;6549;53.128;8.182;2023-08-08T08:58:51;100614.81;;;18.51;100.00
12969;BME280;6549;53.128;8.182;2023-08-08T09:01:51;100610.66;;;18.71;100.00
12969;BME280;6549;53.128;8.182;2023-08-08T09:04:52;100615.75;;;19.23;100.00
12969;BME280;6549;53.128;8.182;2023-08-08T09:07:53;100607.09;;;19.68;100.00
12969;BME280;6549;53.128;8.182;2023-08-08T09:10:53;100617.69;;;19.61;100.00
12969;BME280;6549;53.128;8.182;2023-08-08T09:13:55;100610.34;;;19.67;100.00
12969;BME280;6549;53.128;8.182;2023-08-08T09:16:55;100600.13;;;19.51;100.00
12969;BME280;6549;53.128;8.182;2023-08-08T09:19:57;100599.81;;;19.37;100.00
12969;BME280;6549;53.128;8.182;2023-08-08T09:22:58;100596.78;;;19.44;100.00
12969;BME280;6549;53.128;8.182;2023-08-08T09:25:59;100589.78;;;19.26;100.00
12969;BME280;6549;53.128;8.182;2023-08-08T09:28:59;100593.50;;;18.98;100.00
12969;BME280;6549;53.128;8.182;2023-08-08T09:32:02;100594.16;;;18.77;100.00
12969;BME280;6549;53.128;8.182;2023-08-08T09:35:04;100597.63;;;19.06;100.00
12969;BME280;6549;53.128;8.182;2023-08-08T09:38:09;100600.38;;;19.32;100.00
12969;BME280;6549;53.128;8.182;2023-08-08T09:41:09;100591.19;;;19.56;100.00
12969;BME280;6549;53.128;8.182;2023-08-08T09:44:09;100605.91;;;19.57;100.00
12969;BME280;6549;53.128;8.182;2023-08-08T09:47:12;100604.94;;;19.25;100.00
12969;BME280;6549;53.128;8.182;2023-08-08T09:50:13;100592.44;;;19.30;100.00
12969;BME280;6549;53.128;8.182;2023-08-08T09:53:14;100608.00;;;19.65;100.00
12969;BME280;6549;53.128;8.182;2023-08-08T09:56:14;100594.91;;;19.75;100.00
12969;BME280;6549;53.128;8.182;2023-08-08T09:59:16;100609.41;;;19.70;100.00
12969;BME280;6549;53.128;8.182;2023-08-08T10:02:18;100597.63;;;19.66;100.00
12969;BME280;6549;53.128;8.182;2023-08-08T10:05:19;100600.09;;;19.64;100.00
12969;BME280;6549;53.128;8.182;2023-08-08T10:08:21;100596.56;;;19.85;100.00
12969;BME280;6549;53.128;8.182;2023-08-08T10:11:22;100593.47;;;19.70;100.00
12969;BME280;6549;53.128;8.182;2023-08-08T10:14:29;100597.56;;;19.79;100.00
12969;BME280;6549;53.128;8.182;2023-08-08T10:17:35;100599.13;;;19.80;100.00
12969;BME280;6549;53.128;8.182;2023-08-08T10:20:36;100601.91;;;19.80;100.00
12969;BME280;6549;53.128;8.182;2023-08-08T10:23:37;100616.16;;;19.60;100.00
12969;BME280;6549;53.128;8.182;2023-08-08T10:26:56;100620.22;;;18.96;100.00
12969;BME280;6549;53.128;8.182;2023-08-08T10:30:05;100601.06;;;19.10;100.00
12969;BME280;6549;53.128;8.182;2023-08-08T10:33:15;100607.09;;;19.68;100.00
12969;BME280;6549;53.128;8.182;2023-08-08T10:36:15;100607.56;;;20.10;100.00
12969;BME280;6549;53.128;8.182;2023-08-08T10:39:18;100615.38;;;19.94;100.00
12969;BME280;6549;53.128;8.182;2023-08-08T10:42:20;100604.22;;;19.94;100.00
12969;BME280;6549;53.128;8.182;2023-08-08T10:45:29;100607.28;;;20.30;100.00
12969;BME280;6549;53.128;8.182;2023-08-08T10:48:30;100600.13;;;20.07;100.00
12969;BME280;6549;53.128;8.182;2023-08-08T10:51:44;100600.13;;;20.29;100.00
12969;BME280;6549;53.128;8.182;2023-08-08T10:54:52;100605.44;;;20.14;100.00
12969;BME280;6549;53.128;8.182;2023-08-08T11:01:03;100596.91;;;20.61;100.00
12969;BME280;6549;53.128;8.182;2023-08-08T11:04:07;100590.13;;;20.41;100.00
12969;BME280;6549;53.128;8.182;2023-08-08T11:07:08;100584.47;;;19.88;100.00
12969;BME280;6549;53.128;8.182;2023-08-08T11:10:09;100589.75;;;19.86;100.00
12969;BME280;6549;53.128;8.182;2023-08-08T11:13:09;100591.69;;;19.98;100.00
12969;BME280;6549;53.128;8.182;2023-08-08T11:16:10;100581.53;;;19.70;100.00
12969;BME280;6549;53.128;8.182;2023-08-08T11:19:11;100572.06;;;19.33;100.00
12969;BME280;6549;53.128;8.182;2023-08-08T11:22:12;100590.94;;;19.04;100.00
12969;BME280;6549;53.128;8.182;2023-08-08T11:25:14;100635.72;;;18.84;100.00
12969;BME280;6549;53.128;8.182;2023-08-08T11:28:15;100666.38;;;18.14;100.00
12969;BME280;6549;53.128;8.182;2023-08-08T11:31:15;100638.22;;;17.18;100.00
12969;BME280;6549;53.128;8.182;2023-08-08T11:34:15;100634.94;;;16.71;100.00
12969;BME280;6549;53.128;8.182;2023-08-08T11:37:17;100629.22;;;16.23;100.00
12969;BME280;6549;53.128;8.182;2023-08-08T11:40:19;100631.69;;;16.17;100.00
12969;BME280;6549;53.128;8.182;2023-08-08T11:43:20;100630.28;;;16.09;100.00
12969;BME280;6549;53.128;8.182;2023-08-08T11:46:23;100626.19;;;15.94;100.00
12969;BME280;6549;53.128;8.182;2023-08-08T11:49:24;100631.19;;;15.83;100.00
12969;BME280;6549;53.128;8.182;2023-08-08T11:52:25;100634.03;;;15.99;100.00
12969;BME280;6549;53.128;8.182;2023-08-08T11:55:29;100618.31;;;16.12;100.00
12969;BME280;6549;53.128;8.182;2023-08-08T11:58:30;100626.72;;;16.68;100.00
12969;BME280;6549;53.128;8.182;2023-08-08T12:01:32;100610.34;;;17.22;100.00
12969;BME280;6549;53.128;8.182;2023-08-08T12:04:33;100624.34;;;17.50;100.00
12969;BME280;6549;53.128;8.182;2023-08-08T12:07:33;100621.59;;;17.95;100.00
12969;BME280;6549;53.128;8.182;2023-08-08T12:10:37;100615.59;;;18.38;100.00
12969;BME280;6549;53.128;8.182;2023-08-08T12:13:38;100606.97;;;18.62;100.00
12969;BME280;6549;53.128;8.182;2023-08-08T12:16:42;100604.63;;;18.73;100.00
12969;BME280;6549;53.128;8.182;2023-08-08T12:19:45;100604.28;;;19.21;100.00
12969;BME280;6549;53.128;8.182;2023-08-08T12:22:46;100604.63;;;19.70;100.00
12969;BME280;6549;53.128;8.182;2023-08-08T12:25:47;100595.72;;;19.97;100.00
12969;BME280;6549;53.128;8.182;2023-08-08T12:28:48;100593.34;;;19.74;100.00
12969;BME280;6549;53.128;8.182;2023-08-08T12:31:50;100603.44;;;19.59;100.00
12969;BME280;6549;53.128;8.182;2023-08-08T12:34:51;100609.72;;;19.38;100.00
12969;BME280;6549;53.128;8.182;2023-08-08T12:37:51;100604.22;;;19.59;100.00
12969;BME280;6549;53.128;8.182;2023-08-08T12:40:53;100605.50;;;19.80;100.00
12969;BME280;6549;53.128;8.182;2023-08-08T12:43:54;100600.72;;;20.02;100.00
12969;BME280;6549;53.128;8.182;2023-08-08T12:46:54;100602.97;;;20.16;100.00
12969;BME280;6549;53.128;8.182;2023-08-08T12:49:54;100595.53;;;20.35;99.95
12969;BME280;6549;53.128;8.182;2023-08-08T12:52:55;100609.72;;;20.50;92.25
12969;BME280;6549;53.128;8.182;2023-08-08T12:55:55;100602.31;;;20.56;86.62
12969;BME280;6549;53.128;8.182;2023-08-08T12:58:55;100617.50;;;20.55;86.46
12969;BME280;6549;53.128;8.182;2023-08-08T13:01:55;100619.66;;;20.29;85.43
12969;BME280;6549;53.128;8.182;2023-08-08T13:04:56;100615.72;;;20.39;84.87
12969;BME280;6549;53.128;8.182;2023-08-08T13:07:56;100614.34;;;20.75;86.62
12969;BME280;6549;53.128;8.182;2023-08-08T13:10:57;100597.59;;;20.75;84.41
12969;BME280;6549;53.128;8.182;2023-08-08T13:13:57;100611.00;;;20.89;84.18
12969;BME280;6549;53.128;8.182;2023-08-08T13:16:57;100612.81;;;21.14;85.98
12969;BME280;6549;53.128;8.182;2023-08-08T13:19:58;100610.44;;;21.12;84.01
12969;BME280;6549;53.128;8.182;2023-08-08T13:22:58;100613.22;;;21.03;84.25
12969;BME280;6549;53.128;8.182;2023-08-08T13:25:58;100611.72;;;20.71;81.27
12969;BME280;6549;53.128;8.182;2023-08-08T13:28:59;100616.66;;;20.24;80.76
12969;BME280;6549;53.128;8.182;2023-08-08T13:31:59;100638.63;;;19.78;89.29
12969;BME280;6549;53.128;8.182;2023-08-08T13:35:00;100642.50;;;19.34;100.00
12969;BME280;6549;53.128;8.182;2023-08-08T13:38:00;100637.81;;;19.18;100.00
12969;BME280;6549;53.128;8.182;2023-08-08T13:41:01;100635.13;;;19.52;100.00
12969;BME280;6549;53.128;8.182;2023-08-08T13:44:01;100644.44;;;19.71;100.00
12969;BME280;6549;53.128;8.182;2023-08-08T13:47:02;100639.13;;;19.39;100.00
12969;BME280;6549;53.128;8.182;2023-08-08T13:50:02;100646.19;;;19.18;100.00
12969;BME280;6549;53.128;8.182;2023-08-08T13:53:03;100648.19;;;18.92;100.00
12969;BME280;6549;53.128;8.182;2023-08-08T13:56:04;100662.66;;;18.74;100.00
12969;BME280;6549;53.128;8.182;2023-08-08T13:59:04;100662.88;;;18.67;100.00
12969;BME280;6549;53.128;8.182;2023-08-08T14:02:05;100663.84;;;18.61;100.00
12969;BME280;6549;53.128;8.182;2023-08-08T14:05:06;100658.84;;;18.56;100.00
12969;BME280;6549;53.128;8.182;2023-08-08T14:08:09;100656.97;;;18.78;100.00
12969;BME280;6549;53.128;8.182;2023-08-08T14:11:10;100669.13;;;19.09;100.00
12969;BME280;6549;53.128;8.182;2023-08-08T14:14:10;100677.03;;;19.49;99.89
12969;BME280;6549;53.128;8.182;2023-08-08T14:17:11;100670.56;;;19.26;96.00
12969;BME280;6549;53.128;8.182;2023-08-08T14:20:11;100665.56;;;19.21;100.00
12969;BME280;6549;53.128;8.182;2023-08-08T14:23:12;100653.94;;;19.61;100.00
12969;BME280;6549;53.128;8.182;2023-08-08T14:26:12;100654.28;;;19.97;100.00
12969;BME280;6549;53.128;8.182;2023-08-08T14:29:12;100664.16;;;20.11;92.67
12969;BME280;6549;53.128;8.182;2023-08-08T14:32:13;100647.09;;;20.09;87.34
12969;BME280;6549;53.128;8.182;2023-08-08T14:35:13;100652.91;;;20.02;83.37
12969;BME280;6549;53.128;8.182;2023-08-08T14:38:14;100659.38;;;19.77;80.00
12969;BME280;6549;53.128;8.182;2023-08-08T14:41:14;100667.34;;;19.53;82.60
12969;BME280;6549;53.128;8.182;2023-08-08T14:44:14;100668.31;;;19.72;83.28
12969;BME280;6549;53.128;8.182;2023-08-08T14:47:15;100672.88;;;20.00;80.88
12969;BME280;6549;53.128;8.182;2023-08-08T14:50:16;100678.63;;;20.18;80.81
12969;BME280;6549;53.128;8.182;2023-08-08T14:53:16;100689.19;;;20.24;74.94
12969;BME280;6549;53.128;8.182;2023-08-08T14:56:17;100687.53;;;20.26;79.96
12969;BME280;6549;53.128;8.182;2023-08-08T14:59:17;100683.41;;;20.31;80.65
12969;BME280;6549;53.128;8.182;2023-08-08T15:02:17;100684.72;;;20.39;75.75
12969;BME280;6549;53.128;8.182;2023-08-08T15:05:18;100685.03;;;20.41;73.57
12969;BME280;6549;53.128;8.182;2023-08-08T15:08:18;100683.81;;;20.07;71.41
12969;BME280;6549;53.128;8.182;2023-08-08T15:11:18;100696.41;;;19.78;77.18
12969;BME280;6549;53.128;8.182;2023-08-08T15:14:19;100696.63;;;20.05;77.65
12969;BME280;6549;53.128;8.182;2023-08-08T15:17:19;100691.91;;;20.49;82.68
12969;BME280;6549;53.128;8.182;2023-08-08T15:20:19;100695.88;;;20.60;75.05
12969;BME280;6549;53.128;8.182;2023-08-08T15:23:20;100684.31;;;20.71;71.89
12969;BME280;6549;53.128;8.182;2023-08-08T15:26:20;100689.97;;;20.24;71.46
12969;BME280;6549;53.128;8.182;2023-08-08T15:29:22;100698.03;;;19.88;73.74
12969;BME280;6549;53.128;8.182;2023-08-08T15:32:22;100705.25;;;19.51;81.08
12969;BME280;6549;53.128;8.182;2023-08-08T15:35:23;100716.06;;;19.23;87.57
12969;BME280;6549;53.128;8.182;2023-08-08T15:38:24;100707.69;;;18.98;95.00
12969;BME280;6549;53.128;8.182;2023-08-08T15:41:24;100703.75;;;18.83;95.76
12969;BME280;6549;53.128;8.182;2023-08-08T15:44:25;100705.63;;;18.73;98.84
12969;BME280;6549;53.128;8.182;2023-08-08T15:47:25;100721.09;;;18.62;99.52
12969;BME280;6549;53.128;8.182;2023-08-08T15:50:25;100710.75;;;18.46;92.87
12969;BME280;6549;53.128;8.182;2023-08-08T15:53:26;100717.75;;;18.38;92.94
12969;BME280;6549;53.128;8.182;2023-08-08T15:56:28;100713.16;;;18.31;100.00
12969;BME280;6549;53.128;8.182;2023-08-08T15:59:28;100727.59;;;18.26;94.46